TimeEDT,TemperatureF,Dew PointF,Humidity,Sea Level PressureIn,VisibilityMPH,Wind Direction,Wind SpeedMPH,Gust SpeedMPH,PrecipitationIn,Events,Conditions,WindDirDegrees,DateUTC
12:13 AM,43.2,40.1,89,30.06,10.0,ESE,12.7,17.3,N/A,,Overcast,120,2013-04-18 04:13:00
12:33 AM,43.0,40.1,90,30.04,10.0,ESE,10.4,17.3,N/A,,Overcast,120,2013-04-18 04:33:00
12:53 AM,42.8,40.1,90,30.03,10.0,SE,11.5,17.3,N/A,,Overcast,130,2013-04-18 04:53:00
1:13 AM,42.8,40.1,90,30.01,10.0,ESE,11.5,18.4,N/A,,Overcast,120,2013-04-18 05:13:00
1:33 AM,42.8,40.1,90,30.01,10.0,SE,10.4,19.6,N/A,,Overcast,140,2013-04-18 05:33:00
1:53 AM,42.1,39.9,92,30.00,10.0,SE,8.1,17.3,N/A,Rain,Light Rain,130,2013-04-18 05:53:00
2:13 AM,42.1,40.3,93,29.96,10.0,ESE,9.2,16.1,N/A,Rain,Light Rain,110,2013-04-18 06:13:00
2:33 AM,41.9,40.3,94,29.95,10.0,ESE,9.2,-,N/A,,Overcast,120,2013-04-18 06:33:00
2:53 AM,41.9,40.3,94,29.94,10.0,East,6.9,-,N/A,Rain,Light Rain,90,2013-04-18 06:53:00
3:13 AM,41.9,40.6,95,29.95,10.0,Calm,Calm,-,N/A,Rain,Light Rain,0,2013-04-18 07:13:00
3:33 AM,41.5,40.6,97,29.93,4.0,East,4.6,-,N/A,,Overcast,80,2013-04-18 07:33:00
3:53 AM,41.4,41.0,99,29.93,5.0,East,3.5,-,N/A,,Overcast,100,2013-04-18 07:53:00
4:12 AM,41.4,41.2,99,29.92,3.0,ENE,3.5,-,N/A,,Unknown,60,2013-04-18 08:12:00
4:33 AM,41.2,41.2,100,29.91,3.0,East,3.5,-,N/A,,Unknown,100,2013-04-18 08:33:00
4:53 AM,41.0,41.0,100,29.86,3.0,East,4.6,-,N/A,,Overcast,100,2013-04-18 08:53:00
5:13 AM,41.5,41.5,100,29.87,1.5,Calm,Calm,-,N/A,,Unknown,0,2013-04-18 09:13:00
5:34 AM,41.9,41.9,100,29.86,3.0,Calm,Calm,-,N/A,,Unknown,0,2013-04-18 09:34:00
5:53 AM,42.1,42.1,100,29.90,0.8,SSE,4.6,-,N/A,,Unknown,160,2013-04-18 09:53:00
6:14 AM,43.3,43.3,100,29.82,1.2,ESE,9.2,-,N/A,,Unknown,110,2013-04-18 10:14:00
6:34 AM,47.5,47.5,100,29.82,3.0,SSE,11.5,18.4,N/A,,Unknown,150,2013-04-18 10:34:00
6:54 AM,47.3,46.8,98,29.84,1.5,ESE,6.9,-,N/A,,Unknown,110,2013-04-18 10:54:00
7:13 AM,45.5,45.1,99,29.82,10.0,ESE,8.1,-,N/A,Rain,Light Rain,110,2013-04-18 11:13:00
7:33 AM,45.0,44.8,99,29.83,10.0,Calm,Calm,-,N/A,,Overcast,0,2013-04-18 11:33:00
7:54 AM,44.8,44.8,100,29.81,10.0,East,4.6,-,N/A,,Overcast,80,2013-04-18 11:54:00
8:13 AM,44.6,44.6,100,29.78,10.0,East,6.9,-,N/A,,Overcast,90,2013-04-18 12:13:00
8:33 AM,44.4,44.4,100,29.77,10.0,East,5.8,-,N/A,,Overcast,100,2013-04-18 12:33:00
8:54 AM,44.6,44.6,100,29.75,10.0,ESE,8.1,-,N/A,,Overcast,110,2013-04-18 12:54:00
9:13 AM,44.6,44.6,100,29.74,10.0,East,5.8,-,N/A,,Overcast,100,2013-04-18 13:13:00
9:33 AM,45.5,45.5,100,29.72,7.0,SE,6.9,-,N/A,,Overcast,130,2013-04-18 13:33:00
9:54 AM,46.4,46.4,100,29.70,7.0,ESE,8.1,-,N/A,,Overcast,120,2013-04-18 13:54:00
10:13 AM,48.6,48.6,100,29.69,7.0,SSE,9.2,-,N/A,,Overcast,150,2013-04-18 14:13:00
10:33 AM,51.3,51.3,100,29.68,7.0,South,10.4,-,N/A,,Overcast,180,2013-04-18 14:33:00
10:53 AM,53.4,53.2,99,29.67,7.0,SSE,10.4,-,N/A,,Overcast,160,2013-04-18 14:53:00
11:13 AM,55.9,55.6,99,29.65,7.0,South,15.0,18.4,N/A,,Overcast,170,2013-04-18 15:13:00
11:34 AM,58.8,57.6,96,29.64,10.0,South,12.7,-,N/A,,Scattered Clouds,170,2013-04-18 15:34:00
11:53 AM,60.4,58.5,93,29.63,10.0,South,13.8,-,N/A,,Mostly Cloudy,170,2013-04-18 15:53:00
12:13 PM,62.8,60.1,91,29.60,10.0,South,13.8,-,N/A,,Mostly Cloudy,170,2013-04-18 16:13:00
12:34 PM,65.1,62.2,90,29.59,10.0,South,15.0,20.7,N/A,,Mostly Cloudy,180,2013-04-18 16:34:00
12:53 PM,68.2,63.5,85,29.58,10.0,South,18.4,24.2,N/A,,Scattered Clouds,180,2013-04-18 16:53:00
1:13 PM,69.3,64.0,83,29.57,10.0,South,17.3,23.0,N/A,,Mostly Cloudy,180,2013-04-18 17:13:00
1:34 PM,71.6,65.3,80,29.54,10.0,South,19.6,24.2,N/A,,Mostly Cloudy,180,2013-04-18 17:34:00
1:53 PM,73.0,65.3,77,29.53,10.0,South,19.6,28.8,N/A,,Mostly Cloudy,190,2013-04-18 17:53:00
2:13 PM,73.4,64.9,75,29.51,10.0,South,18.4,29.9,N/A,,Overcast,190,2013-04-18 18:13:00
2:34 PM,69.6,65.3,86,29.52,3.0,South,12.7,-,N/A,Rain,Heavy Rain,190,2013-04-18 18:34:00
2:53 PM,67.5,65.8,95,29.54,2.0,SSW,13.8,17.3,N/A,Rain,Rain,200,2013-04-18 18:53:00
3:13 PM,68.0,66.2,94,29.53,10.0,South,17.3,23.0,N/A,,Overcast,190,2013-04-18 19:13:00
3:33 PM,68.4,65.1,89,29.54,10.0,SSW,17.3,23.0,N/A,,Overcast,200,2013-04-18 19:33:00
3:54 PM,68.4,64.0,86,29.54,10.0,SSW,18.4,23.0,N/A,,Overcast,210,2013-04-18 19:54:00
4:33 PM,67.1,62.6,85,29.57,10.0,WSW,12.7,17.3,N/A,,Overcast,240,2013-04-18 20:33:00
5:13 PM,61.7,59.7,93,29.60,7.0,West,13.8,-,N/A,Rain,Rain,260,2013-04-18 21:13:00
5:33 PM,61.0,59.7,96,29.60,7.0,WSW,8.1,-,N/A,Rain,Light Rain,250,2013-04-18 21:33:00
5:54 PM,61.0,60.1,97,29.59,7.0,SW,8.1,-,N/A,Rain,Light Rain,230,2013-04-18 21:54:00
6:13 PM,61.3,60.8,98,29.57,7.0,SW,6.9,-,N/A,Rain,Rain,230,2013-04-18 22:13:00
6:34 PM,61.9,61.2,97,29.57,10.0,SSW,5.8,-,N/A,Rain,Light Rain,200,2013-04-18 22:34:00
6:54 PM,61.9,61.7,99,29.58,10.0,SSW,5.8,-,N/A,,Mostly Cloudy,210,2013-04-18 22:54:00
7:13 PM,62.8,62.2,98,29.59,10.0,WSW,8.1,-,N/A,,Mostly Cloudy,240,2013-04-18 23:13:00
7:34 PM,63.0,61.7,96,29.59,10.0,WSW,6.9,-,N/A,,Overcast,240,2013-04-18 23:34:00
7:54 PM,62.8,61.5,96,29.59,10.0,SW,6.9,-,N/A,,Drizzle,220,2013-04-18 23:54:00
8:13 PM,62.6,61.3,96,29.60,10.0,SW,6.9,-,N/A,,Drizzle,220,2013-04-19 00:13:00
8:34 PM,62.6,61.2,95,29.58,10.0,SSW,8.1,-,N/A,Rain,Light Rain,210,2013-04-19 00:34:00
8:54 PM,62.1,60.8,96,29.59,10.0,SW,6.9,-,N/A,,Light Drizzle,220,2013-04-19 00:54:00
9:13 PM,61.5,60.1,95,29.60,10.0,SSW,8.1,-,N/A,Rain,Light Rain,200,2013-04-19 01:13:00
9:34 PM,61.2,60.4,97,29.59,10.0,South,10.4,-,N/A,Rain,Light Rain,190,2013-04-19 01:34:00
9:54 PM,61.2,60.4,97,29.55,10.0,SSE,15.0,-,N/A,Rain,Light Rain,160,2013-04-19 01:54:00
10:13 PM,61.0,60.1,97,29.52,10.0,South,23.0,28.8,N/A,Rain,Light Rain,170,2013-04-19 02:13:00
10:34 PM,60.8,59.7,96,29.53,10.0,South,25.3,29.9,N/A,Rain,Light Rain,170,2013-04-19 02:34:00
10:54 PM,60.8,59.2,94,29.50,10.0,South,25.3,33.4,N/A,,Overcast,170,2013-04-19 02:54:00
11:34 PM,60.4,58.5,93,29.51,10.0,South,25.3,34.5,N/A,,Overcast,170,2013-04-19 03:34:00
11:53 PM,60.4,58.5,93,29.53,10.0,South,25.3,33.4,N/A,,Overcast,180,2013-04-19 03:53:00